Time;durP1;ratioP1;P1;durP2;ratioP2;P2;SDS_P1;SDS_P2;PMS_P1;PMS_P2;Temp;Humidity;BMP_temperature;BMP_pressure;BME280_temperature;BME280_humidity;BME280_pressure;Samples;Min_cycle;Max_cycle;Signal;HPM_P1;HPM_P2
2022/01/18 00:02:26;;;;;;;39.33;5.03;;;;;;;5.82;98.42;103465.69;5036560;28;20041;-69
2022/01/18 00:04:52;;;;;;;37.72;5.93;;;;;;;5.70;98.59;103471.34;5033675;28;20029;-69
2022/01/18 00:07:20;;;;;;;36.88;5.70;;;;;;;5.62;99.27;103472.47;5041265;28;20098;-69
2022/01/18 00:09:46;;;;;;;37.28;5.40;;;;;;;5.73;99.33;103474.63;5037759;28;20547;-69
2022/01/18 00:12:42;;;;;;;36.97;5.78;;;;;;;5.74;99.10;103478.88;5030993;28;20032;-69
2022/01/18 00:17:52;;;;;;;44.13;5.43;;;;;;;5.57;99.52;103473.53;5020106;28;20035;-69
2022/01/18 00:20:32;;;;;;;32.03;4.82;;;;;;;5.52;100.00;103478.00;5025903;28;20033;-69
2022/01/18 00:22:58;;;;;;;44.80;7.38;;;;;;;5.62;100.00;103480.19;5021574;28;20037;-69
2022/01/18 00:25:24;;;;;;;41.60;6.90;;;;;;;5.60;99.91;103474.25;5026301;28;20557;-69
2022/01/18 00:27:49;;;;;;;32.38;6.75;;;;;;;5.52;100.00;103475.44;5047895;28;20051;-69
2022/01/18 00:32:56;;;;;;;38.10;6.43;;;;;;;5.54;100.00;103473.66;5043401;28;20033;-69
2022/01/18 00:35:22;;;;;;;38.70;7.70;;;;;;;5.54;100.00;103481.38;5029468;28;20483;-69
2022/01/18 00:37:54;;;;;;;36.78;7.40;;;;;;;5.52;100.00;103483.16;5029239;28;20040;-69
2022/01/18 00:40:20;;;;;;;44.08;7.95;;;;;;;5.55;100.00;103495.94;5027199;28;20029;-69
2022/01/18 00:42:48;;;;;;;38.45;7.43;;;;;;;5.51;100.00;103497.78;5046010;28;20573;-69
2022/01/18 00:45:14;;;;;;;42.78;7.28;;;;;;;5.45;100.00;103493.69;5024363;28;20048;-69
2022/01/18 00:47:39;;;;;;;39.97;7.22;;;;;;;5.48;100.00;103492.72;5023117;28;20048;-69
2022/01/18 00:50:05;;;;;;;44.95;8.13;;;;;;;5.57;100.00;103504.44;5025855;28;20116;-69
2022/01/18 00:52:36;;;;;;;46.92;6.97;;;;;;;5.45;100.00;103501.41;5031441;28;20032;-69
2022/01/18 00:55:02;;;;;;;32.90;7.38;;;;;;;5.41;100.00;103501.59;5032886;28;20425;-69
2022/01/18 00:57:28;;;;;;;35.05;7.53;;;;;;;5.39;100.00;103504.22;5051885;28;20037;-69
2022/01/18 00:59:54;;;;;;;40.72;6.60;;;;;;;5.36;100.00;103503.50;5008849;28;20033;-69
2022/01/18 01:02:20;;;;;;;35.90;6.70;;;;;;;5.32;100.00;103509.66;5022303;28;20036;-69
2022/01/18 01:04:50;;;;;;;42.90;7.50;;;;;;;5.32;100.00;103515.63;5037258;28;20028;-69
2022/01/18 01:07:19;;;;;;;44.03;7.43;;;;;;;5.33;100.00;103509.59;5010267;28;20162;-69
2022/01/18 01:09:45;;;;;;;41.75;8.35;;;;;;;5.35;100.00;103512.09;5042385;28;20033;-69
2022/01/18 01:12:17;;;;;;;36.85;7.40;;;;;;;5.33;100.00;103517.31;5024359;28;20356;-69
2022/01/18 01:14:43;;;;;;;38.85;8.82;;;;;;;5.32;100.00;103514.78;5022707;28;20040;-69
2022/01/18 01:44:19;;;;;;;37.30;8.73;;;;;;;5.27;100.00;103527.81;5044588;28;20086;-69
2022/01/18 01:46:45;;;;;;;30.92;7.85;;;;;;;5.23;100.00;103521.94;5043796;28;20391;-69
2022/01/18 01:49:15;;;;;;;35.10;8.07;;;;;;;5.19;100.00;103525.50;5042647;28;20033;-69
2022/01/18 01:51:44;;;;;;;45.42;8.35;;;;;;;5.23;100.00;103521.09;5050683;28;20041;-69
2022/01/18 01:54:16;;;;;;;46.03;8.38;;;;;;;5.21;100.00;103520.31;5028534;28;20037;-68
2022/01/18 01:56:42;;;;;;;34.60;7.57;;;;;;;5.21;100.00;103518.56;5014379;28;20094;-68
2022/01/18 01:59:10;;;;;;;45.75;9.25;;;;;;;5.26;100.00;103528.72;5042174;28;20034;-69
2022/01/18 02:01:49;;;;;;;37.60;8.70;;;;;;;5.23;100.00;103523.66;5044893;28;20025;-68
2022/01/18 02:04:16;;;;;;;44.22;8.73;;;;;;;5.22;100.00;103522.84;5025153;28;20075;-69
2022/01/18 02:06:42;;;;;;;47.85;9.90;;;;;;;5.21;100.00;103522.88;5022976;28;20548;-69
2022/01/18 02:09:08;;;;;;;37.40;8.77;;;;;;;5.28;100.00;103520.94;5038336;28;20036;-69
2022/01/18 02:11:34;;;;;;;32.85;8.45;;;;;;;5.20;100.00;103524.63;4976513;28;1266418;-70
2022/01/18 02:14:01;;;;;;;49.03;9.10;;;;;;;5.19;100.00;103525.50;5044227;28;20832;-70
2022/01/18 02:22:05;;;;;;;37.63;8.38;;;;;;;5.15;100.00;103523.94;5040183;28;20056;-70
2022/01/18 02:24:31;;;;;;;36.88;8.23;;;;;;;5.13;100.00;103523.16;5029839;28;20170;-70
2022/01/18 02:26:57;;;;;;;41.85;8.70;;;;;;;5.13;100.00;103525.72;5040441;28;20060;-70
2022/01/18 02:29:23;;;;;;;28.92;7.45;;;;;;;5.12;100.00;103523.22;5044000;28;20040;-70
2022/01/18 02:31:48;;;;;;;37.40;8.13;;;;;;;5.15;100.00;103512.81;5043110;28;20029;-70
2022/01/18 02:34:17;;;;;;;45.45;9.30;;;;;;;5.15;100.00;103512.81;5020444;28;20048;-70
2022/01/18 02:36:44;;;;;;;39.83;8.23;;;;;;;5.14;100.00;103514.56;5020697;28;20284;-70
2022/01/18 02:39:12;;;;;;;50.53;8.73;;;;;;;5.19;100.00;103512.66;5041163;28;20033;-70
2022/01/18 02:41:39;;;;;;;38.28;7.75;;;;;;;5.19;100.00;103515.22;5028696;28;20091;-70
2022/01/18 02:44:12;;;;;;;35.45;8.52;;;;;;;5.20;100.00;103511.75;5042469;28;20029;-70
2022/01/18 02:46:39;;;;;;;53.65;8.82;;;;;;;5.19;100.00;103507.50;5008942;28;20048;-70
2022/01/18 02:49:06;;;;;;;38.70;8.60;;;;;;;5.16;100.00;103509.34;5039821;28;20245;-70
2022/01/18 02:51:35;;;;;;;40.85;7.50;;;;;;;5.11;100.00;103506.94;5028315;28;20037;-70
2022/01/18 02:54:06;;;;;;;60.65;10.32;;;;;;;5.11;100.00;103501.78;5035764;28;20029;-70
2022/01/18 02:56:41;;;;;;;54.58;8.30;;;;;;;5.20;100.00;103509.19;5043174;28;20052;-70
2022/01/18 03:04:18;;;;;;;46.78;9.50;;;;;;;5.11;100.00;103503.53;5021116;28;20033;-70
2022/01/18 03:06:44;;;;;;;38.58;7.80;;;;;;;5.09;100.00;103507.91;5043833;28;20037;-70
2022/01/18 03:09:10;;;;;;;47.95;9.85;;;;;;;5.11;100.00;103506.94;5044707;28;20025;-70
2022/01/18 03:11:36;;;;;;;37.50;8.05;;;;;;;5.07;100.00;103501.06;5031435;28;20041;-70
2022/01/18 03:14:02;;;;;;;34.33;9.40;;;;;;;5.09;100.00;103502.75;5029139;28;20040;-70
2022/01/18 03:16:28;;;;;;;37.15;8.10;;;;;;;5.09;100.00;103508.72;5038475;28;20029;-70
2022/01/18 03:18:53;;;;;;;40.38;8.23;;;;;;;5.14;100.00;103518.84;5024602;28;20056;-70
2022/01/18 03:21:19;;;;;;;35.83;8.48;;;;;;;5.09;100.00;103520.75;5043784;28;20090;-70
2022/01/18 03:23:51;;;;;;;42.13;8.38;;;;;;;5.08;100.00;103525.03;5026257;28;20079;-70
2022/01/18 03:26:18;;;;;;;41.75;8.43;;;;;;;5.11;100.00;103519.81;5017455;28;20082;-70
2022/01/18 03:28:44;;;;;;;52.90;10.57;;;;;;;5.17;100.00;103534.19;5045469;28;20124;-70
2022/01/18 03:31:10;;;;;;;43.47;8.20;;;;;;;5.11;100.00;103526.69;5025855;28;20520;-70
2022/01/18 03:33:36;;;;;;;49.05;9.07;;;;;;;5.18;100.00;103533.28;5043694;28;20032;-70
2022/01/18 03:36:03;;;;;;;33.50;8.30;;;;;;;5.15;100.00;103529.09;5042342;28;20082;-70
2022/01/18 03:38:31;;;;;;;36.22;8.75;;;;;;;5.17;100.00;103532.44;5039735;28;20040;-70
2022/01/18 03:41:06;;;;;;;41.88;8.75;;;;;;;5.20;100.00;103536.66;5034696;28;20514;-70
2022/01/18 03:43:37;;;;;;;34.33;8.88;;;;;;;5.08;100.00;103530.19;5044947;28;20041;-70
2022/01/18 03:46:05;;;;;;;35.42;8.45;;;;;;;5.05;100.00;103532.88;5045365;28;20112;-70
2022/01/18 03:48:35;;;;;;;37.67;7.78;;;;;;;5.04;100.00;103533.75;5044953;28;20116;-70
2022/01/18 03:51:02;;;;;;;39.45;8.27;;;;;;;5.03;100.00;103539.81;5026966;28;20029;-70
2022/01/18 03:53:28;;;;;;;36.30;9.65;;;;;;;5.01;100.00;103541.56;5021470;28;20095;-70
2022/01/18 03:55:54;;;;;;;36.40;9.80;;;;;;;5.00;100.00;103540.75;5025211;28;20103;-70
2022/01/18 03:58:21;;;;;;;29.05;9.10;;;;;;;5.00;100.00;103533.03;5042690;28;20127;-70
2022/01/18 04:00:47;;;;;;;37.10;8.40;;;;;;;5.01;100.00;103542.44;5012028;28;20071;-70
2022/01/18 04:03:13;;;;;;;43.70;9.40;;;;;;;5.00;100.00;103545.88;5045501;28;20033;-70
2022/01/18 04:05:39;;;;;;;41.83;11.25;;;;;;;5.02;100.00;103541.53;5025378;28;20447;-70
2022/01/18 04:08:05;;;;;;;47.33;9.45;;;;;;;5.02;100.00;103545.84;5025406;28;20048;-70
2022/01/18 04:10:31;;;;;;;32.70;9.13;;;;;;;5.00;100.00;103545.88;5020005;28;20038;-70
2022/01/18 04:13:00;;;;;;;31.45;8.15;;;;;;;5.00;100.00;103548.47;5041226;28;20035;-70
2022/01/18 04:15:26;;;;;;;36.72;8.52;;;;;;;4.99;100.00;103553.66;5044484;28;20506;-70
2022/01/18 04:28:44;;;;;;;33.40;10.63;;;;;;;5.00;100.00;103545.06;5008449;28;20037;-70
2022/01/18 04:31:10;;;;;;;42.70;11.27;;;;;;;5.03;100.00;103542.38;5047586;28;20033;-70
2022/01/18 04:33:38;;;;;;;57.13;16.35;;;;;;;5.02;100.00;103543.28;5029046;28;20040;-70
2022/01/18 04:36:08;;;;;;;73.35;19.60;;;;;;;5.00;100.00;103539.91;5029130;28;20423;-70
2022/01/18 04:38:35;;;;;;;135.25;40.00;;;;;;;4.94;100.00;103542.72;5033750;28;20086;-70
2022/01/18 04:41:06;;;;;;;202.75;66.10;;;;;;;4.93;100.00;103535.88;5047071;28;20029;-70
2022/01/18 04:48:57;;;;;;;75.03;28.05;;;;;;;4.90;100.00;103533.38;5045670;28;20047;-70
2022/01/18 04:51:23;;;;;;;118.38;48.75;;;;;;;4.93;100.00;103528.16;5028561;28;20687;-70
2022/01/18 04:53:54;;;;;;;107.03;50.55;;;;;;;4.88;100.00;103531.72;5047589;28;20064;-70
2022/01/18 04:58:57;;;;;;;78.72;29.00;;;;;;;4.95;100.00;103526.38;5047144;28;20056;-70
2022/01/18 05:01:22;;;;;;;64.85;20.58;;;;;;;4.96;100.00;103526.31;5047547;28;20763;-70
2022/01/18 05:03:48;;;;;;;60.97;15.30;;;;;;;5.00;100.00;103529.63;5046538;28;20090;-70
2022/01/18 05:06:17;;;;;;;50.00;17.35;;;;;;;4.96;100.00;103536.59;5033682;28;20045;-70
2022/01/18 05:08:43;;;;;;;44.45;16.17;;;;;;;4.92;100.00;103540.19;5029789;28;20044;-70
2022/01/18 05:11:14;;;;;;;62.70;15.40;;;;;;;4.95;100.00;103541.78;5047518;28;20055;-70
2022/01/18 05:22:56;;;;;;;60.92;13.20;;;;;;;5.04;100.00;103546.63;5047767;28;20029;-70
2022/01/18 05:24:31;;;;;;;47.90;13.57;;;;;;;4.98;100.00;103545.09;5043868;28;20555;-70
2022/01/18 05:26:59;;;;;;;48.10;14.27;;;;;;;4.92;100.00;103553.03;5037617;28;20032;-70
2022/01/18 05:29:25;;;;;;;53.63;15.10;;;;;;;4.94;100.00;103547.84;5029789;28;20039;-70
2022/01/18 05:31:51;;;;;;;59.38;16.15;;;;;;;4.97;100.00;103546.00;5030049;28;20036;-70
2022/01/18 05:34:17;;;;;;;43.65;15.48;;;;;;;4.90;100.00;103549.69;5016052;28;20091;-70
2022/01/18 05:36:44;;;;;;;58.90;13.90;;;;;;;4.85;100.00;103547.25;5034177;28;20128;-70
2022/01/18 05:39:11;;;;;;;56.42;13.88;;;;;;;4.89;100.00;103550.56;5043855;28;20118;-70
2022/01/18 05:41:38;;;;;;;57.17;15.35;;;;;;;4.85;100.00;103546.41;5045836;28;20039;-70
2022/01/18 05:44:04;;;;;;;59.38;14.10;;;;;;;4.81;100.00;103549.97;5028878;28;20048;-70
2022/01/18 05:46:30;;;;;;;43.08;14.43;;;;;;;4.78;100.00;103553.47;5039548;28;20036;-70
2022/01/18 05:49:00;;;;;;;45.95;14.02;;;;;;;4.81;100.00;103555.13;5042516;28;20135;-70
2022/01/18 05:51:28;;;;;;;64.90;14.98;;;;;;;4.80;100.00;103544.00;5043381;28;20037;-70
2022/01/18 05:53:54;;;;;;;51.53;14.75;;;;;;;4.88;100.00;103543.75;5027976;28;20033;-70
2022/01/18 05:56:19;;;;;;;54.10;13.60;;;;;;;4.81;100.00;103548.25;5029506;28;20028;-70
2022/01/18 05:58:45;;;;;;;47.63;12.02;;;;;;;4.83;100.00;103550.78;5017886;28;20525;-70
2022/01/18 06:01:22;;;;;;;50.05;14.32;;;;;;;4.83;100.00;103540.50;5048219;28;20029;-70
2022/01/18 06:04:05;;;;;;;45.40;12.32;;;;;;;4.83;100.00;103554.19;5028770;28;20037;-71
2022/01/18 06:09:15;;;;;;;43.80;11.23;;;;;;;4.78;100.00;103557.78;5040579;28;20303;-70
2022/01/18 06:11:41;;;;;;;43.65;12.57;;;;;;;4.80;100.00;103556.88;5044068;28;20128;-70
2022/01/18 06:14:07;;;;;;;47.55;10.80;;;;;;;4.79;100.00;103552.59;5021760;28;20444;-70
2022/01/18 06:16:32;;;;;;;63.70;13.35;;;;;;;4.85;100.00;103565.25;5032611;28;20029;-70
2022/01/18 06:18:58;;;;;;;49.97;12.55;;;;;;;4.94;100.00;103556.38;5010551;28;20390;-70
2022/01/18 06:21:25;;;;;;;50.72;12.57;;;;;;;4.86;100.00;103560.97;5025858;28;20041;-70
2022/01/18 06:23:50;;;;;;;53.65;12.98;;;;;;;4.90;100.00;103567.69;5020916;28;20040;-70
2022/01/18 06:26:16;;;;;;;59.10;13.25;;;;;;;4.81;100.00;103563.66;5043360;28;20028;-70
2022/01/18 06:28:43;;;;;;;52.25;11.27;;;;;;;4.79;100.00;103568.03;5048987;28;20036;-70
2022/01/18 06:31:09;;;;;;;55.50;11.93;;;;;;;4.75;100.00;103563.06;5025454;28;20086;-70
2022/01/18 06:33:35;;;;;;;45.90;11.15;;;;;;;4.79;100.00;103568.03;5043529;28;20029;-70
2022/01/18 06:36:01;;;;;;;48.97;11.77;;;;;;;4.79;100.00;103567.19;5043607;28;20494;-70
2022/01/18 06:38:26;;;;;;;49.28;12.15;;;;;;;4.85;100.00;103565.25;5026686;28;20028;-70
2022/01/18 06:40:52;;;;;;;42.47;11.82;;;;;;;4.78;100.00;103573.22;5022421;28;20033;-70
2022/01/18 06:43:18;;;;;;;47.13;11.15;;;;;;;4.83;100.00;103561.88;5044129;28;20021;-70
2022/01/18 06:45:44;;;;;;;53.17;14.13;;;;;;;4.84;100.00;103573.88;5019738;28;20459;-70
2022/01/18 06:48:09;;;;;;;51.42;13.82;;;;;;;4.82;100.00;103570.50;5008531;28;20028;-71
2022/01/18 06:50:36;;;;;;;55.75;14.20;;;;;;;4.85;100.00;103570.38;5041772;28;20131;-70
2022/01/18 06:53:01;;;;;;;50.42;14.43;;;;;;;4.80;100.00;103568.84;5022765;28;20383;-70
2022/01/18 06:55:27;;;;;;;42.25;13.13;;;;;;;4.76;100.00;103567.28;5041267;28;20040;-70
2022/01/18 06:57:53;;;;;;;61.83;16.45;;;;;;;4.75;100.00;103581.88;5037521;28;20081;-70
2022/01/18 07:00:22;;;;;;;44.42;13.70;;;;;;;4.73;100.00;103582.78;5022228;28;20233;-70
2022/01/18 07:02:48;;;;;;;51.40;15.25;;;;;;;4.70;100.00;103578.59;5022263;28;20032;-70
2022/01/18 07:05:14;;;;;;;50.15;15.13;;;;;;;4.73;100.00;103582.78;5023599;28;20036;-70
2022/01/18 07:07:40;;;;;;;42.45;15.18;;;;;;;4.71;100.00;103585.44;5019386;28;20036;-70
2022/01/18 07:10:08;;;;;;;51.45;15.63;;;;;;;4.74;100.00;103590.47;5036381;28;20050;-70
2022/01/18 07:12:35;;;;;;;57.70;16.95;;;;;;;4.76;100.00;103593.81;5041702;28;20423;-70
2022/01/18 07:15:07;;;;;;;64.97;15.73;;;;;;;4.77;100.00;103595.53;5023953;28;20041;-70
2022/01/18 07:17:34;;;;;;;68.40;16.67;;;;;;;4.73;100.00;103588.81;5032506;28;20041;-70
2022/01/18 07:20:04;;;;;;;45.50;14.02;;;;;;;4.72;100.00;103592.25;5042183;28;20029;-70
2022/01/18 07:22:30;;;;;;;46.60;13.63;;;;;;;4.69;100.00;103597.50;5037052;28;20437;-70
2022/01/18 07:24:58;;;;;;;59.88;15.35;;;;;;;4.66;100.00;103589.88;5044787;28;20539;-70
2022/01/18 07:27:23;;;;;;;54.50;14.80;;;;;;;4.65;100.00;103581.34;5045020;28;20040;-70
2022/01/18 07:29:50;;;;;;;59.60;16.95;;;;;;;4.64;100.00;103584.78;5026163;28;20029;-70
2022/01/18 07:32:21;;;;;;;50.10;14.32;;;;;;;4.64;100.00;103581.38;5048016;28;20041;-70
2022/01/18 07:34:55;;;;;;;51.97;14.70;;;;;;;4.65;100.00;103583.03;5047197;28;20040;-70
2022/01/18 07:37:23;;;;;;;46.83;14.95;;;;;;;4.64;100.00;103586.53;5047246;28;20048;-70
2022/01/18 07:39:51;;;;;;;45.45;14.27;;;;;;;4.63;100.00;103587.41;5029778;28;20043;-70
2022/01/18 07:42:19;;;;;;;42.33;14.93;;;;;;;4.63;100.00;103592.53;5047113;28;20033;-70
2022/01/18 07:44:45;;;;;;;49.00;15.02;;;;;;;4.64;100.00;103591.66;5046992;28;20973;-70
2022/01/18 07:47:11;;;;;;;44.45;14.52;;;;;;;4.63;100.00;103595.09;5048134;28;20090;-70
2022/01/18 07:49:37;;;;;;;50.05;14.85;;;;;;;4.65;100.00;103598.47;5047069;28;20066;-70
2022/01/18 07:52:05;;;;;;;49.67;14.88;;;;;;;4.65;100.00;103596.75;5045569;28;20117;-70
2022/01/18 07:54:31;;;;;;;48.25;15.77;;;;;;;4.68;100.00;103599.22;5031907;28;20047;-70
2022/01/18 07:56:57;;;;;;;43.53;15.05;;;;;;;4.68;100.00;103608.66;5036490;28;20040;-70
2022/01/18 07:59:27;;;;;;;55.83;15.30;;;;;;;4.68;100.00;103606.09;5047864;28;20036;-71
2022/01/18 08:01:56;;;;;;;54.72;15.82;;;;;;;4.70;100.00;103613.75;5047903;28;20033;-70
2022/01/18 08:04:22;;;;;;;56.65;16.52;;;;;;;4.73;100.00;103623.94;5048037;28;20025;-70
2022/01/18 08:06:48;;;;;;;52.80;15.68;;;;;;;4.75;100.00;103622.19;5046904;28;20041;-70
2022/01/18 08:09:18;;;;;;;48.38;15.95;;;;;;;4.78;100.00;103620.31;5047968;28;20160;-71
2022/01/18 08:11:45;;;;;;;43.88;14.77;;;;;;;4.79;100.00;103621.19;5069498;23;20272;-78
2022/01/18 08:14:13;;;;;;;61.88;17.83;;;;;;;4.77;100.00;103625.53;5048365;28;20033;-78
2022/01/18 08:19:25;;;;;;;49.15;15.45;;;;;;;4.77;100.00;103620.41;5050293;28;20029;-78
2022/01/18 08:21:50;;;;;;;48.25;14.80;;;;;;;4.79;100.00;103623.75;5051434;28;20039;-78
2022/01/18 08:24:16;;;;;;;40.90;14.35;;;;;;;4.76;100.00;103619.53;5050370;28;20025;-78
2022/01/18 08:26:41;;;;;;;49.03;15.80;;;;;;;4.81;100.00;103622.81;5051478;28;20380;-78
2022/01/18 08:29:08;;;;;;;55.30;16.63;;;;;;;4.86;100.00;103631.22;5035007;28;20055;-78
2022/01/18 08:31:33;;;;;;;46.70;16.30;;;;;;;4.85;100.00;103628.69;5033312;28;20037;-78
2022/01/18 08:33:59;;;;;;;52.80;15.20;;;;;;;4.86;100.00;103630.38;5033109;28;20093;-78
2022/01/18 08:36:25;;;;;;;46.00;15.18;;;;;;;4.86;100.00;103627.81;5044466;28;20033;-78
2022/01/18 08:38:50;;;;;;;54.05;15.38;;;;;;;5.04;100.00;103628.94;5046547;28;20029;-77
2022/01/18 08:41:16;;;;;;;47.13;16.40;;;;;;;4.98;100.00;103632.53;5018464;28;20029;-78
2022/01/18 08:43:41;;;;;;;44.38;15.35;;;;;;;5.05;100.00;103620.34;5033258;28;20041;-78
2022/01/18 08:46:08;;;;;;;49.28;15.50;;;;;;;5.11;100.00;103616.72;5022052;28;20052;-78
2022/01/18 08:48:35;;;;;;;61.03;17.17;;;;;;;5.14;100.00;103616.59;5048848;28;20111;-78
2022/01/18 08:51:00;;;;;;;52.90;14.98;;;;;;;5.08;100.00;103615.06;5035673;28;20060;-78
2022/01/18 08:53:26;;;;;;;53.35;17.00;;;;;;;5.04;100.00;103618.63;5035359;28;20423;-78
2022/01/18 08:55:52;;;;;;;57.47;18.27;;;;;;;5.18;100.00;103623.31;5037456;28;20120;-78
2022/01/18 08:58:21;;;;;;;60.15;16.77;;;;;;;5.23;100.00;103627.41;5034522;28;20075;-78
2022/01/18 09:00:47;;;;;;;45.13;17.33;;;;;;;5.24;100.00;103625.69;5051184;28;20025;-78
2022/01/18 09:03:13;;;;;;;50.60;16.50;;;;;;;5.24;100.00;103625.69;5031960;28;20029;-78
2022/01/18 09:05:38;;;;;;;46.63;16.13;;;;;;;5.24;100.00;103629.09;5035397;28;20037;-77
2022/01/18 09:08:08;;;;;;;58.97;16.70;;;;;;;5.36;100.00;103629.56;5048825;28;20483;-77
2022/01/18 09:10:34;;;;;;;49.65;17.25;;;;;;;5.42;100.00;103630.19;5049407;28;20127;-78
2022/01/18 09:12:59;;;;;;;48.38;16.70;;;;;;;5.50;100.00;103629.94;5021065;28;20044;-79
2022/01/18 09:15:26;;;;;;;51.88;16.80;;;;;;;5.58;100.00;103635.66;5044631;28;20102;-79
2022/01/18 09:17:52;;;;;;;52.28;17.00;;;;;;;5.53;100.00;103631.56;5018320;28;20037;-79
2022/01/18 09:20:18;;;;;;;57.60;16.70;;;;;;;5.51;100.00;103635.94;5037105;28;20039;-79
2022/01/18 09:22:46;;;;;;;49.28;17.13;;;;;;;5.39;100.00;103632.88;5034687;28;20033;-79
2022/01/18 09:25:33;;;;;;;56.28;18.50;;;;;;;5.35;100.00;103633.91;5025079;28;20162;-78
2022/01/18 09:27:59;;;;;;;49.95;18.08;;;;;;;5.34;100.00;103637.34;5012647;28;20033;-79
2022/01/18 09:30:27;;;;;;;54.95;18.70;;;;;;;5.37;100.00;103633.81;5033881;28;20025;-79
2022/01/18 09:32:54;;;;;;;50.35;18.20;;;;;;;5.40;100.00;103637.13;5045602;28;20071;-80
2022/01/18 09:35:21;;;;;;;49.70;17.25;;;;;;;5.44;100.00;103637.88;5051143;28;20484;-79
2022/01/18 09:37:47;;;;;;;48.33;17.13;;;;;;;5.39;100.00;103635.47;5045802;28;20032;-79
2022/01/18 09:40:16;;;;;;;50.53;18.60;;;;;;;5.40;100.00;103637.13;5022740;28;20067;-79
2022/01/18 09:42:43;;;;;;;48.08;17.65;;;;;;;5.47;100.00;103642.91;5031240;28;20592;-79
2022/01/18 09:45:13;;;;;;;57.70;17.13;;;;;;;5.52;100.00;103642.75;5032381;28;20029;-79
2022/01/18 09:47:40;;;;;;;50.35;17.50;;;;;;;5.54;100.00;103643.53;5019415;28;20052;-79
2022/01/18 09:50:08;;;;;;;42.25;17.05;;;;;;;5.61;100.00;103640.72;5018906;28;20147;-79
2022/01/18 09:52:33;;;;;;;56.30;17.52;;;;;;;5.70;100.00;103634.38;5032138;28;20295;-79
2022/01/18 09:54:59;;;;;;;46.03;18.23;;;;;;;5.74;100.00;103640.25;5049408;28;20021;-79
2022/01/18 09:57:24;;;;;;;51.25;18.33;;;;;;;5.80;100.00;103650.34;5037229;28;20037;-79
2022/01/18 09:59:50;;;;;;;45.65;17.88;;;;;;;5.83;100.00;103648.47;5044462;28;20312;-79
2022/01/18 10:02:15;;;;;;;41.42;16.95;;;;;;;5.87;100.00;103651.78;5040735;28;20029;-79
2022/01/18 10:04:45;;;;;;;45.85;18.80;;;;;;;5.94;100.00;103658.41;5032989;28;20040;-79
2022/01/18 10:07:11;;;;;;;47.22;17.48;;;;;;;5.92;100.00;103654.22;5053005;28;20029;-79
2022/01/18 10:09:37;;;;;;;43.88;17.15;;;;;;;5.97;100.00;103658.34;5017750;28;20056;-79
2022/01/18 10:12:15;;;;;;;45.63;18.45;;;;;;;6.06;100.00;103654.56;5014246;28;20299;-79
2022/01/18 10:14:52;;;;;;;57.65;19.42;;;;;;;6.17;100.00;103652.44;5015217;28;20040;-79
2022/01/18 10:17:29;;;;;;;47.00;18.27;;;;;;;6.18;100.00;103648.97;5043368;28;20119;-79
2022/01/18 10:20:13;;;;;;;43.80;18.13;;;;;;;6.22;100.00;103647.13;5040672;28;20049;-79
2022/01/18 10:22:43;;;;;;;49.78;18.05;;;;;;;6.26;100.00;103647.84;5044579;28;20075;-79
2022/01/18 10:25:14;;;;;;;39.65;17.13;;;;;;;6.24;100.00;103650.47;5031588;28;20045;-79
2022/01/18 10:27:40;;;;;;;45.58;17.90;;;;;;;6.40;100.00;103645.56;5032195;28;20530;-79
2022/01/18 10:30:08;;;;;;;38.97;17.08;;;;;;;6.55;98.83;103638.97;5052133;28;20033;-79
2022/01/18 10:32:39;;;;;;;52.30;17.83;;;;;;;6.53;97.67;103635.63;5052269;28;20100;-79
2022/01/18 10:35:08;;;;;;;47.08;16.38;;;;;;;6.62;96.90;103632.69;5021291;28;20039;-79
2022/01/18 10:37:35;;;;;;;48.72;16.73;;;;;;;6.57;96.64;103629.44;5013619;28;20523;-79
2022/01/18 10:40:04;;;;;;;47.38;17.85;;;;;;;6.49;96.48;103634.06;5027512;28;20123;-79
2022/01/18 10:42:39;;;;;;;57.10;16.92;;;;;;;6.40;97.56;103628.38;5033307;28;20021;-79
2022/01/18 10:45:08;;;;;;;41.50;17.60;;;;;;;6.34;98.10;103636.31;5041884;28;20395;-79
2022/01/18 10:47:35;;;;;;;50.55;17.42;;;;;;;6.38;98.30;103632.72;5026742;28;20044;-79
2022/01/18 10:50:10;;;;;;;44.60;17.83;;;;;;;6.37;98.80;103638.78;5033771;28;20033;-79
2022/01/18 10:52:35;;;;;;;48.67;18.33;;;;;;;6.42;98.68;103633.44;5046645;28;20032;-79
2022/01/18 10:55:01;;;;;;;44.75;18.55;;;;;;;6.37;98.30;103630.22;5016252;28;20029;-77
2022/01/18 10:57:30;;;;;;;50.72;19.65;;;;;;;6.40;98.56;103636.13;5046430;28;20033;-77
2022/01/18 11:00:07;;;;;;;47.40;17.92;;;;;;;6.49;99.08;103628.91;5014532;28;20036;-79
2022/01/18 11:02:35;;;;;;;39.03;16.60;;;;;;;6.52;98.47;103621.91;5013043;28;20029;-79
2022/01/18 11:05:12;;;;;;;46.85;17.98;;;;;;;6.54;98.53;103619.25;5029236;28;20033;-79
2022/01/18 11:07:39;;;;;;;47.92;16.85;;;;;;;6.54;98.34;103620.09;5025077;28;20037;-79
2022/01/18 11:10:06;;;;;;;53.95;17.73;;;;;;;6.54;98.18;103617.50;5031015;28;20033;-77
2022/01/18 11:13:04;;;;;;;44.25;16.00;;;;;;;6.58;98.11;103608.75;5042045;28;20490;-77
2022/01/18 11:15:36;;;;;;;43.05;16.95;;;;;;;6.61;97.78;103602.63;5036281;28;20059;-79
2022/01/18 11:18:08;;;;;;;39.95;16.33;;;;;;;6.68;97.47;103609.22;5026105;28;20039;-77
2022/01/18 11:20:37;;;;;;;46.72;17.02;;;;;;;6.77;96.68;103602.84;5032158;28;20490;-77
2022/01/18 11:23:06;;;;;;;43.55;15.63;;;;;;;6.82;96.29;103600.94;5026495;28;20041;-77
2022/01/18 11:25:33;;;;;;;45.30;16.30;;;;;;;6.85;96.48;103593.06;5021893;28;20307;-77
2022/01/18 11:27:59;;;;;;;42.10;15.93;;;;;;;6.96;96.21;103596.03;5029839;28;20044;-79
2022/01/18 11:30:31;;;;;;;42.80;16.00;;;;;;;6.98;95.07;103595.97;5029745;28;20410;-79
2022/01/18 11:32:58;;;;;;;44.00;15.63;;;;;;;6.95;94.35;103604.69;5043380;28;20041;-77
2022/01/18 11:35:36;;;;;;;47.55;14.05;;;;;;;7.11;93.88;103593.72;5026396;28;20029;-77
2022/01/18 11:38:09;;;;;;;36.97;13.38;;;;;;;7.04;93.52;103594.88;5017107;28;20035;-78
2022/01/18 11:40:50;;;;;;;35.03;13.77;;;;;;;7.03;93.96;103596.63;5030035;28;20491;-79
2022/01/18 11:43:32;;;;;;;37.83;14.65;;;;;;;7.10;94.24;103587.72;5027740;28;20033;-79
2022/01/18 11:45:57;;;;;;;35.55;14.05;;;;;;;7.14;94.15;103586.69;5044433;23;20065;-69
2022/01/18 11:48:23;;;;;;;35.47;15.48;;;;;;;7.19;94.38;103589.88;5037508;28;20080;-70
2022/01/18 11:51:16;;;;;;;39.08;13.30;;;;;;;7.21;94.08;103588.09;5042134;28;20025;-69
2022/01/18 11:53:46;;;;;;;37.65;14.70;;;;;;;7.29;93.02;103589.50;5037834;28;20044;-69
2022/01/18 11:56:40;;;;;;;42.08;15.25;;;;;;;7.24;92.94;103581.13;5008298;28;20055;-69
2022/01/18 11:59:26;;;;;;;39.67;14.30;;;;;;;7.19;92.77;103579.56;5043745;28;20386;-69
2022/01/18 12:01:57;;;;;;;44.53;14.25;;;;;;;7.16;92.68;103573.72;5043760;28;20033;-69
2022/01/18 12:04:42;;;;;;;49.70;17.08;;;;;;;7.17;91.08;103576.22;5037537;28;20151;-69
2022/01/18 12:07:10;;;;;;;40.83;13.10;;;;;;;7.12;91.34;103570.44;5049768;28;20107;-69
2022/01/18 12:09:47;;;;;;;42.65;13.32;;;;;;;7.07;91.02;103574.94;5054464;28;20044;-70
2022/01/18 12:12:46;;;;;;;40.42;13.20;;;;;;;7.04;91.67;103571.66;5016595;28;20119;-70
2022/01/18 12:15:15;;;;;;;39.20;12.95;;;;;;;7.02;92.17;103576.88;5014232;28;20033;-69
2022/01/18 12:17:57;;;;;;;35.60;12.57;;;;;;;7.01;92.65;103567.47;5042878;28;20065;-69
2022/01/18 12:20:35;;;;;;;45.70;14.80;;;;;;;7.04;92.36;103569.06;5045245;28;20025;-69
2022/01/18 12:23:12;;;;;;;41.47;14.80;;;;;;;7.04;92.32;103567.31;5013829;28;20487;-69
2022/01/18 12:32:04;;;;;;;34.03;12.30;;;;;;;7.08;91.64;103568.84;5042691;28;20068;-69
2022/01/18 12:36:54;;;;;;;29.88;12.20;;;;;;;7.13;91.51;103563.53;5033673;28;20037;-70
2022/01/18 12:39:21;;;;;;;32.20;11.20;;;;;;;7.16;91.67;103565.97;5045142;28;20577;-69
2022/01/18 12:41:52;;;;;;;38.50;11.35;;;;;;;7.20;91.89;103559.78;5029742;28;20032;-70
2022/01/18 12:44:24;;;;;;;37.67;12.43;;;;;;;7.28;91.27;103551.69;5046011;28;20112;-69
2022/01/18 12:46:59;;;;;;;36.85;11.27;;;;;;;7.31;91.03;103548.97;5027080;28;20040;-70